sensor_id;sensor_type;location;lat;lon;timestamp;P1;durP1;ratioP1;P2;durP2;ratioP2
79616;SDS011;69097;52.132;5.422;2023-06-14T00:01:50;6.97;;;2.33;;
79616;SDS011;69097;52.132;5.422;2023-06-14T00:04:17;7.10;;;2.15;;
79616;SDS011;69097;52.132;5.422;2023-06-14T00:06:44;8.02;;;2.13;;
79616;SDS011;69097;52.132;5.422;2023-06-14T00:09:16;5.88;;;2.15;;
79616;SDS011;69097;52.132;5.422;2023-06-14T00:11:45;5.28;;;1.85;;
79616;SDS011;69097;52.132;5.422;2023-06-14T00:14:12;7.88;;;2.20;;
79616;SDS011;69097;52.132;5.422;2023-06-14T00:16:39;6.25;;;2.08;;
79616;SDS011;69097;52.132;5.422;2023-06-14T00:19:09;5.50;;;1.88;;
79616;SDS011;69097;52.132;5.422;2023-06-14T00:21:37;5.93;;;2.25;;
79616;SDS011;69097;52.132;5.422;2023-06-14T00:24:04;7.18;;;2.20;;
79616;SDS011;69097;52.132;5.422;2023-06-14T00:26:31;6.90;;;1.95;;
79616;SDS011;69097;52.132;5.422;2023-06-14T00:28:57;5.25;;;2.33;;
79616;SDS011;69097;52.132;5.422;2023-06-14T00:31:24;8.68;;;2.10;;
79616;SDS011;69097;52.132;5.422;2023-06-14T00:33:50;7.35;;;2.20;;
79616;SDS011;69097;52.132;5.422;2023-06-14T00:36:17;6.20;;;2.00;;
79616;SDS011;69097;52.132;5.422;2023-06-14T00:38:43;9.38;;;2.25;;
79616;SDS011;69097;52.132;5.422;2023-06-14T00:41:10;11.23;;;1.83;;
79616;SDS011;69097;52.132;5.422;2023-06-14T00:43:36;7.68;;;2.03;;
79616;SDS011;69097;52.132;5.422;2023-06-14T00:46:03;8.18;;;2.40;;
79616;SDS011;69097;52.132;5.422;2023-06-14T00:48:29;6.63;;;2.15;;
79616;SDS011;69097;52.132;5.422;2023-06-14T00:50:57;7.72;;;2.15;;
79616;SDS011;69097;52.132;5.422;2023-06-14T00:53:27;8.00;;;2.30;;
79616;SDS011;69097;52.132;5.422;2023-06-14T00:55:53;8.48;;;2.15;;
79616;SDS011;69097;52.132;5.422;2023-06-14T00:58:21;8.60;;;2.05;;
79616;SDS011;69097;52.132;5.422;2023-06-14T01:00:48;6.63;;;1.90;;
79616;SDS011;69097;52.132;5.422;2023-06-14T01:03:15;6.07;;;1.98;;
79616;SDS011;69097;52.132;5.422;2023-06-14T01:05:53;9.80;;;1.92;;
79616;SDS011;69097;52.132;5.422;2023-06-14T01:08:43;8.20;;;2.17;;
79616;SDS011;69097;52.132;5.422;2023-06-14T01:11:28;11.80;;;2.60;;
79616;SDS011;69097;52.132;5.422;2023-06-14T01:13:59;4.60;;;1.33;;
79616;SDS011;69097;52.132;5.422;2023-06-14T01:16:28;4.43;;;1.88;;
79616;SDS011;69097;52.132;5.422;2023-06-14T01:18:56;5.82;;;1.70;;
79616;SDS011;69097;52.132;5.422;2023-06-14T01:21:24;4.95;;;2.15;;
79616;SDS011;69097;52.132;5.422;2023-06-14T01:23:51;6.65;;;1.90;;
79616;SDS011;69097;52.132;5.422;2023-06-14T01:26:22;6.18;;;2.33;;
79616;SDS011;69097;52.132;5.422;2023-06-14T01:28:49;8.27;;;1.92;;
79616;SDS011;69097;52.132;5.422;2023-06-14T01:31:19;5.80;;;1.90;;
79616;SDS011;69097;52.132;5.422;2023-06-14T01:33:50;5.93;;;1.70;;
79616;SDS011;69097;52.132;5.422;2023-06-14T01:36:20;6.25;;;2.10;;
79616;SDS011;69097;52.132;5.422;2023-06-14T01:38:48;5.68;;;2.08;;
79616;SDS011;69097;52.132;5.422;2023-06-14T01:41:17;4.55;;;1.73;;
79616;SDS011;69097;52.132;5.422;2023-06-14T01:43:45;7.82;;;2.25;;
79616;SDS011;69097;52.132;5.422;2023-06-14T01:46:15;5.03;;;1.50;;
79616;SDS011;69097;52.132;5.422;2023-06-14T01:51:08;6.00;;;1.60;;
79616;SDS011;69097;52.132;5.422;2023-06-14T01:53:35;5.55;;;1.90;;
79616;SDS011;69097;52.132;5.422;2023-06-14T01:58:29;6.18;;;2.03;;
79616;SDS011;69097;52.132;5.422;2023-06-14T02:00:56;6.47;;;1.95;;
79616;SDS011;69097;52.132;5.422;2023-06-14T02:03:23;5.93;;;2.15;;
79616;SDS011;69097;52.132;5.422;2023-06-14T02:05:50;9.27;;;1.80;;
79616;SDS011;69097;52.132;5.422;2023-06-14T02:08:16;8.18;;;1.90;;
79616;SDS011;69097;52.132;5.422;2023-06-14T02:10:43;5.75;;;2.10;;
79616;SDS011;69097;52.132;5.422;2023-06-14T02:13:10;8.88;;;2.25;;
79616;SDS011;69097;52.132;5.422;2023-06-14T02:15:36;5.75;;;2.10;;
79616;SDS011;69097;52.132;5.422;2023-06-14T02:18:03;6.00;;;1.90;;
79616;SDS011;69097;52.132;5.422;2023-06-14T02:22:56;7.07;;;2.50;;
79616;SDS011;69097;52.132;5.422;2023-06-14T02:25:23;6.13;;;1.83;;
79616;SDS011;69097;52.132;5.422;2023-06-14T02:27:50;7.03;;;2.20;;
79616;SDS011;69097;52.132;5.422;2023-06-14T02:30:16;10.80;;;2.28;;
79616;SDS011;69097;52.132;5.422;2023-06-14T02:35:13;6.22;;;2.10;;
79616;SDS011;69097;52.132;5.422;2023-06-14T02:37:40;6.38;;;2.47;;
79616;SDS011;69097;52.132;5.422;2023-06-14T02:42:35;7.75;;;1.83;;
79616;SDS011;69097;52.132;5.422;2023-06-14T02:45:01;8.75;;;1.98;;
79616;SDS011;69097;52.132;5.422;2023-06-14T02:47:30;6.82;;;1.92;;
79616;SDS011;69097;52.132;5.422;2023-06-14T02:49:56;6.57;;;1.80;;
79616;SDS011;69097;52.132;5.422;2023-06-14T02:52:23;5.10;;;1.80;;
79616;SDS011;69097;52.132;5.422;2023-06-14T02:54:51;9.00;;;1.70;;
79616;SDS011;69097;52.132;5.422;2023-06-14T02:57:18;5.13;;;1.90;;
79616;SDS011;69097;52.132;5.422;2023-06-14T02:59:44;5.50;;;1.95;;
79616;SDS011;69097;52.132;5.422;2023-06-14T03:02:11;5.88;;;1.95;;
79616;SDS011;69097;52.132;5.422;2023-06-14T03:04:37;6.05;;;1.80;;
79616;SDS011;69097;52.132;5.422;2023-06-14T03:09:36;6.78;;;1.73;;
79616;SDS011;69097;52.132;5.422;2023-06-14T03:12:03;6.50;;;2.10;;
79616;SDS011;69097;52.132;5.422;2023-06-14T03:14:32;7.18;;;2.08;;
79616;SDS011;69097;52.132;5.422;2023-06-14T03:16:59;5.30;;;2.05;;
79616;SDS011;69097;52.132;5.422;2023-06-14T03:19:26;5.53;;;1.77;;
79616;SDS011;69097;52.132;5.422;2023-06-14T03:21:53;7.35;;;2.42;;
79616;SDS011;69097;52.132;5.422;2023-06-14T03:24:23;5.63;;;1.58;;
79616;SDS011;69097;52.132;5.422;2023-06-14T03:26:50;7.03;;;2.15;;
79616;SDS011;69097;52.132;5.422;2023-06-14T03:29:17;5.90;;;1.88;;
79616;SDS011;69097;52.132;5.422;2023-06-14T03:32:00;5.82;;;1.85;;
79616;SDS011;69097;52.132;5.422;2023-06-14T03:34:27;6.25;;;2.30;;
79616;SDS011;69097;52.132;5.422;2023-06-14T03:36:54;5.75;;;2.03;;
79616;SDS011;69097;52.132;5.422;2023-06-14T03:39:20;5.63;;;2.08;;
79616;SDS011;69097;52.132;5.422;2023-06-14T03:41:47;6.72;;;2.28;;
79616;SDS011;69097;52.132;5.422;2023-06-14T03:44:15;5.15;;;2.10;;
79616;SDS011;69097;52.132;5.422;2023-06-14T03:46:47;6.60;;;2.10;;
79616;SDS011;69097;52.132;5.422;2023-06-14T03:49:14;4.95;;;1.73;;
79616;SDS011;69097;52.132;5.422;2023-06-14T03:51:42;7.82;;;2.20;;
79616;SDS011;69097;52.132;5.422;2023-06-14T03:54:09;7.47;;;1.90;;
79616;SDS011;69097;52.132;5.422;2023-06-14T03:56:55;6.60;;;1.83;;
79616;SDS011;69097;52.132;5.422;2023-06-14T03:59:23;7.93;;;2.55;;
79616;SDS011;69097;52.132;5.422;2023-06-14T04:01:50;4.72;;;1.98;;
79616;SDS011;69097;52.132;5.422;2023-06-14T04:04:16;6.65;;;1.85;;
79616;SDS011;69097;52.132;5.422;2023-06-14T04:06:44;5.47;;;1.77;;
79616;SDS011;69097;52.132;5.422;2023-06-14T04:09:14;6.78;;;1.75;;
79616;SDS011;69097;52.132;5.422;2023-06-14T04:11:40;5.80;;;2.00;;
79616;SDS011;69097;52.132;5.422;2023-06-14T04:14:07;7.38;;;1.83;;
79616;SDS011;69097;52.132;5.422;2023-06-14T04:16:33;5.97;;;1.85;;
79616;SDS011;69097;52.132;5.422;2023-06-14T04:19:00;6.63;;;2.08;;
79616;SDS011;69097;52.132;5.422;2023-06-14T04:21:27;6.75;;;2.20;;
79616;SDS011;69097;52.132;5.422;2023-06-14T04:23:54;6.28;;;2.03;;
79616;SDS011;69097;52.132;5.422;2023-06-14T04:26:21;5.78;;;2.40;;
79616;SDS011;69097;52.132;5.422;2023-06-14T04:28:52;4.45;;;1.85;;
79616;SDS011;69097;52.132;5.422;2023-06-14T04:31:19;5.57;;;1.98;;
79616;SDS011;69097;52.132;5.422;2023-06-14T04:33:47;8.40;;;2.00;;
79616;SDS011;69097;52.132;5.422;2023-06-14T04:36:17;6.80;;;1.80;;
79616;SDS011;69097;52.132;5.422;2023-06-14T04:38:44;7.80;;;1.90;;
79616;SDS011;69097;52.132;5.422;2023-06-14T04:41:12;6.43;;;1.83;;
79616;SDS011;69097;52.132;5.422;2023-06-14T04:43:39;8.00;;;1.85;;
79616;SDS011;69097;52.132;5.422;2023-06-14T04:46:05;7.82;;;1.98;;
79616;SDS011;69097;52.132;5.422;2023-06-14T04:48:40;8.68;;;2.38;;
79616;SDS011;69097;52.132;5.422;2023-06-14T04:51:08;7.22;;;1.80;;
79616;SDS011;69097;52.132;5.422;2023-06-14T04:53:35;5.80;;;1.80;;
79616;SDS011;69097;52.132;5.422;2023-06-14T04:56:03;7.40;;;2.33;;
79616;SDS011;69097;52.132;5.422;2023-06-14T05:00:56;11.63;;;2.15;;
79616;SDS011;69097;52.132;5.422;2023-06-14T05:03:25;5.70;;;2.00;;
79616;SDS011;69097;52.132;5.422;2023-06-14T05:05:53;5.80;;;1.85;;
79616;SDS011;69097;52.132;5.422;2023-06-14T05:08:20;7.57;;;2.10;;
79616;SDS011;69097;52.132;5.422;2023-06-14T05:10:49;6.68;;;2.10;;
79616;SDS011;69097;52.132;5.422;2023-06-14T05:13:16;7.53;;;1.73;;
79616;SDS011;69097;52.132;5.422;2023-06-14T05:15:43;7.57;;;2.20;;
79616;SDS011;69097;52.132;5.422;2023-06-14T05:18:10;11.52;;;2.15;;
79616;SDS011;69097;52.132;5.422;2023-06-14T05:20:37;7.82;;;2.22;;
79616;SDS011;69097;52.132;5.422;2023-06-14T05:23:03;8.77;;;2.35;;
79616;SDS011;69097;52.132;5.422;2023-06-14T05:25:30;16.52;;;3.45;;
79616;SDS011;69097;52.132;5.422;2023-06-14T05:27:56;5.80;;;2.00;;
79616;SDS011;69097;52.132;5.422;2023-06-14T05:30:23;4.28;;;1.77;;
79616;SDS011;69097;52.132;5.422;2023-06-14T05:32:49;8.85;;;2.33;;
79616;SDS011;69097;52.132;5.422;2023-06-14T05:35:16;8.10;;;2.03;;
79616;SDS011;69097;52.132;5.422;2023-06-14T05:37:43;5.15;;;1.90;;
79616;SDS011;69097;52.132;5.422;2023-06-14T05:40:09;6.28;;;2.20;;
79616;SDS011;69097;52.132;5.422;2023-06-14T05:42:36;6.93;;;2.33;;
79616;SDS011;69097;52.132;5.422;2023-06-14T05:45:03;6.07;;;2.25;;
79616;SDS011;69097;52.132;5.422;2023-06-14T05:47:30;5.78;;;2.03;;
79616;SDS011;69097;52.132;5.422;2023-06-14T05:49:57;8.70;;;2.25;;
79616;SDS011;69097;52.132;5.422;2023-06-14T05:52:24;6.43;;;2.05;;
79616;SDS011;69097;52.132;5.422;2023-06-14T05:54:51;7.65;;;2.28;;
79616;SDS011;69097;52.132;5.422;2023-06-14T05:57:18;7.55;;;2.00;;
79616;SDS011;69097;52.132;5.422;2023-06-14T05:59:44;5.25;;;1.85;;
79616;SDS011;69097;52.132;5.422;2023-06-14T06:02:11;6.18;;;2.17;;
79616;SDS011;69097;52.132;5.422;2023-06-14T06:04:37;6.90;;;2.28;;
79616;SDS011;69097;52.132;5.422;2023-06-14T06:07:04;6.32;;;1.73;;
79616;SDS011;69097;52.132;5.422;2023-06-14T06:11:57;7.95;;;1.90;;
79616;SDS011;69097;52.132;5.422;2023-06-14T06:14:24;5.53;;;1.70;;
79616;SDS011;69097;52.132;5.422;2023-06-14T06:16:50;5.85;;;2.25;;
79616;SDS011;69097;52.132;5.422;2023-06-14T06:19:18;6.72;;;2.15;;
79616;SDS011;69097;52.132;5.422;2023-06-14T06:21:45;5.93;;;1.88;;
79616;SDS011;69097;52.132;5.422;2023-06-14T06:24:12;5.65;;;2.03;;
79616;SDS011;69097;52.132;5.422;2023-06-14T06:26:38;10.15;;;2.08;;
79616;SDS011;69097;52.132;5.422;2023-06-14T06:29:06;7.70;;;1.85;;
79616;SDS011;69097;52.132;5.422;2023-06-14T06:31:32;6.47;;;2.53;;
79616;SDS011;69097;52.132;5.422;2023-06-14T06:33:59;7.70;;;2.25;;
79616;SDS011;69097;52.132;5.422;2023-06-14T06:36:25;5.95;;;2.03;;
79616;SDS011;69097;52.132;5.422;2023-06-14T06:38:52;6.68;;;1.90;;
79616;SDS011;69097;52.132;5.422;2023-06-14T06:41:18;7.22;;;2.30;;
79616;SDS011;69097;52.132;5.422;2023-06-14T06:43:45;6.75;;;2.10;;
79616;SDS011;69097;52.132;5.422;2023-06-14T06:46:12;6.88;;;2.22;;
79616;SDS011;69097;52.132;5.422;2023-06-14T06:48:39;5.97;;;1.80;;
79616;SDS011;69097;52.132;5.422;2023-06-14T06:51:06;6.47;;;2.17;;
79616;SDS011;69097;52.132;5.422;2023-06-14T06:53:32;6.95;;;2.13;;
79616;SDS011;69097;52.132;5.422;2023-06-14T06:56:09;5.20;;;2.08;;
79616;SDS011;69097;52.132;5.422;2023-06-14T06:58:36;5.57;;;1.98;;
79616;SDS011;69097;52.132;5.422;2023-06-14T07:01:02;5.82;;;2.00;;
79616;SDS011;69097;52.132;5.422;2023-06-14T07:03:29;6.80;;;1.95;;
79616;SDS011;69097;52.132;5.422;2023-06-14T07:05:56;8.43;;;1.92;;
79616;SDS011;69097;52.132;5.422;2023-06-14T07:08:22;7.28;;;1.95;;
79616;SDS011;69097;52.132;5.422;2023-06-14T07:10:49;6.00;;;2.53;;
79616;SDS011;69097;52.132;5.422;2023-06-14T07:13:15;4.88;;;2.03;;
79616;SDS011;69097;52.132;5.422;2023-06-14T07:15:42;8.13;;;2.05;;
79616;SDS011;69097;52.132;5.422;2023-06-14T07:18:09;7.85;;;1.70;;
79616;SDS011;69097;52.132;5.422;2023-06-14T07:20:35;5.43;;;2.10;;
79616;SDS011;69097;52.132;5.422;2023-06-14T07:23:04;8.48;;;2.10;;
79616;SDS011;69097;52.132;5.422;2023-06-14T07:25:31;4.88;;;2.10;;
79616;SDS011;69097;52.132;5.422;2023-06-14T07:27:58;10.68;;;2.17;;
79616;SDS011;69097;52.132;5.422;2023-06-14T07:30:24;7.18;;;2.00;;
79616;SDS011;69097;52.132;5.422;2023-06-14T07:32:53;7.65;;;1.73;;
79616;SDS011;69097;52.132;5.422;2023-06-14T07:35:19;6.22;;;1.65;;
79616;SDS011;69097;52.132;5.422;2023-06-14T07:37:46;5.88;;;1.63;;
79616;SDS011;69097;52.132;5.422;2023-06-14T07:42:39;5.97;;;1.58;;
79616;SDS011;69097;52.132;5.422;2023-06-14T07:45:06;9.85;;;1.70;;
79616;SDS011;69097;52.132;5.422;2023-06-14T07:47:33;4.47;;;1.70;;
79616;SDS011;69097;52.132;5.422;2023-06-14T07:50:00;6.18;;;1.55;;
79616;SDS011;69097;52.132;5.422;2023-06-14T07:52:26;5.68;;;1.75;;
79616;SDS011;69097;52.132;5.422;2023-06-14T07:54:53;7.97;;;1.60;;
79616;SDS011;69097;52.132;5.422;2023-06-14T07:57:19;5.28;;;1.40;;
79616;SDS011;69097;52.132;5.422;2023-06-14T07:59:46;5.68;;;1.65;;
79616;SDS011;69097;52.132;5.422;2023-06-14T08:02:12;4.05;;;1.65;;
79616;SDS011;69097;52.132;5.422;2023-06-14T08:04:39;5.68;;;1.40;;
79616;SDS011;69097;52.132;5.422;2023-06-14T08:07:06;5.75;;;1.15;;
79616;SDS011;69097;52.132;5.422;2023-06-14T08:09:33;5.18;;;1.40;;
79616;SDS011;69097;52.132;5.422;2023-06-14T08:12:04;4.55;;;1.23;;
79616;SDS011;69097;52.132;5.422;2023-06-14T08:14:33;6.45;;;1.80;;
79616;SDS011;69097;52.132;5.422;2023-06-14T08:17:00;4.88;;;1.30;;
79616;SDS011;69097;52.132;5.422;2023-06-14T08:19:27;4.47;;;1.08;;
79616;SDS011;69097;52.132;5.422;2023-06-14T08:21:54;5.13;;;1.85;;
79616;SDS011;69097;52.132;5.422;2023-06-14T08:24:21;5.97;;;1.52;;
79616;SDS011;69097;52.132;5.422;2023-06-14T08:26:53;4.85;;;1.45;;
79616;SDS011;69097;52.132;5.422;2023-06-14T08:29:20;4.25;;;1.40;;
79616;SDS011;69097;52.132;5.422;2023-06-14T08:31:47;3.67;;;1.17;;
79616;SDS011;69097;52.132;5.422;2023-06-14T08:34:14;6.00;;;1.08;;
79616;SDS011;69097;52.132;5.422;2023-06-14T08:36:40;4.20;;;1.10;;
79616;SDS011;69097;52.132;5.422;2023-06-14T08:39:07;5.10;;;1.30;;
79616;SDS011;69097;52.132;5.422;2023-06-14T08:41:35;5.93;;;1.20;;
79616;SDS011;69097;52.132;5.422;2023-06-14T08:46:28;7.80;;;1.30;;
79616;SDS011;69097;52.132;5.422;2023-06-14T08:49:00;3.53;;;1.25;;
79616;SDS011;69097;52.132;5.422;2023-06-14T08:51:27;5.22;;;1.20;;
79616;SDS011;69097;52.132;5.422;2023-06-14T08:54:00;3.70;;;1.05;;
79616;SDS011;69097;52.132;5.422;2023-06-14T08:56:28;3.72;;;1.10;;
79616;SDS011;69097;52.132;5.422;2023-06-14T08:58:56;4.65;;;0.93;;
79616;SDS011;69097;52.132;5.422;2023-06-14T09:01:23;3.67;;;1.13;;
79616;SDS011;69097;52.132;5.422;2023-06-14T09:06:17;4.55;;;0.95;;
79616;SDS011;69097;52.132;5.422;2023-06-14T09:08:45;3.50;;;1.10;;
79616;SDS011;69097;52.132;5.422;2023-06-14T09:11:15;4.90;;;1.00;;
79616;SDS011;69097;52.132;5.422;2023-06-14T09:13:45;4.40;;;1.00;;
79616;SDS011;69097;52.132;5.422;2023-06-14T09:16:13;5.72;;;1.10;;
79616;SDS011;69097;52.132;5.422;2023-06-14T09:18:41;6.38;;;1.30;;
79616;SDS011;69097;52.132;5.422;2023-06-14T09:21:11;4.95;;;1.25;;
79616;SDS011;69097;52.132;5.422;2023-06-14T09:23:39;5.13;;;1.15;;
79616;SDS011;69097;52.132;5.422;2023-06-14T09:26:14;4.63;;;1.40;;
79616;SDS011;69097;52.132;5.422;2023-06-14T09:28:42;5.57;;;1.05;;
79616;SDS011;69097;52.132;5.422;2023-06-14T09:31:13;4.13;;;0.90;;
79616;SDS011;69097;52.132;5.422;2023-06-14T09:33:45;4.38;;;1.15;;
79616;SDS011;69097;52.132;5.422;2023-06-14T09:36:15;3.45;;;0.73;;
79616;SDS011;69097;52.132;5.422;2023-06-14T09:38:55;3.28;;;0.80;;
79616;SDS011;69097;52.132;5.422;2023-06-14T09:41:31;5.47;;;1.00;;
79616;SDS011;69097;52.132;5.422;2023-06-14T09:44:02;4.80;;;1.40;;
79616;SDS011;69097;52.132;5.422;2023-06-14T09:46:35;3.45;;;0.93;;
79616;SDS011;69097;52.132;5.422;2023-06-14T09:49:04;5.38;;;1.17;;
79616;SDS011;69097;52.132;5.422;2023-06-14T09:51:31;5.78;;;1.05;;
79616;SDS011;69097;52.132;5.422;2023-06-14T09:54:02;6.93;;;1.35;;
79616;SDS011;69097;52.132;5.422;2023-06-14T09:56:37;3.65;;;1.00;;
79616;SDS011;69097;52.132;5.422;2023-06-14T09:59:11;3.70;;;1.20;;
79616;SDS011;69097;52.132;5.422;2023-06-14T10:01:41;4.35;;;1.00;;
79616;SDS011;69097;52.132;5.422;2023-06-14T10:04:09;3.70;;;0.82;;
79616;SDS011;69097;52.132;5.422;2023-06-14T10:06:39;5.15;;;1.08;;
79616;SDS011;69097;52.132;5.422;2023-06-14T10:09:08;4.40;;;1.10;;
79616;SDS011;69097;52.132;5.422;2023-06-14T10:11:35;3.78;;;1.00;;
79616;SDS011;69097;52.132;5.422;2023-06-14T10:14:04;3.55;;;0.75;;
79616;SDS011;69097;52.132;5.422;2023-06-14T10:19:11;4.68;;;1.10;;
79616;SDS011;69097;52.132;5.422;2023-06-14T10:21:54;4.18;;;1.00;;
79616;SDS011;69097;52.132;5.422;2023-06-14T10:24:27;5.03;;;0.90;;
79616;SDS011;69097;52.132;5.422;2023-06-14T10:27:00;5.68;;;1.10;;
79616;SDS011;69097;52.132;5.422;2023-06-14T10:29:27;5.07;;;1.27;;
79616;SDS011;69097;52.132;5.422;2023-06-14T10:31:59;3.65;;;1.20;;
79616;SDS011;69097;52.132;5.422;2023-06-14T10:34:27;3.90;;;1.00;;
79616;SDS011;69097;52.132;5.422;2023-06-14T10:37:01;4.80;;;1.30;;
79616;SDS011;69097;52.132;5.422;2023-06-14T10:39:38;3.45;;;0.98;;
79616;SDS011;69097;52.132;5.422;2023-06-14T10:42:07;5.32;;;1.25;;
79616;SDS011;69097;52.132;5.422;2023-06-14T10:44:38;4.38;;;1.00;;
79616;SDS011;69097;52.132;5.422;2023-06-14T10:47:07;4.30;;;1.05;;
79616;SDS011;69097;52.132;5.422;2023-06-14T10:49:37;6.95;;;1.13;;
79616;SDS011;69097;52.132;5.422;2023-06-14T10:52:12;3.85;;;0.80;;
79616;SDS011;69097;52.132;5.422;2023-06-14T10:57:24;3.42;;;0.93;;
79616;SDS011;69097;52.132;5.422;2023-06-14T10:59:51;4.68;;;1.00;;
79616;SDS011;69097;52.132;5.422;2023-06-14T11:02:46;6.10;;;1.02;;
79616;SDS011;69097;52.132;5.422;2023-06-14T11:05:25;3.80;;;0.93;;
79616;SDS011;69097;52.132;5.422;2023-06-14T11:10:49;4.28;;;1.42;;
79616;SDS011;69097;52.132;5.422;2023-06-14T11:13:16;5.32;;;1.00;;
79616;SDS011;69097;52.132;5.422;2023-06-14T11:15:45;4.50;;;1.00;;
79616;SDS011;69097;52.132;5.422;2023-06-14T11:18:37;4.50;;;1.00;;
79616;SDS011;69097;52.132;5.422;2023-06-14T11:21:05;3.63;;;1.10;;
79616;SDS011;69097;52.132;5.422;2023-06-14T11:23:32;4.47;;;1.00;;
79616;SDS011;69097;52.132;5.422;2023-06-14T11:25:58;4.22;;;0.98;;
79616;SDS011;69097;52.132;5.422;2023-06-14T11:28:34;3.72;;;0.85;;
79616;SDS011;69097;52.132;5.422;2023-06-14T11:31:03;5.07;;;1.23;;
79616;SDS011;69097;52.132;5.422;2023-06-14T11:33:30;3.78;;;1.10;;
79616;SDS011;69097;52.132;5.422;2023-06-14T11:38:24;3.65;;;0.90;;
79616;SDS011;69097;52.132;5.422;2023-06-14T11:40:53;8.63;;;1.10;;
79616;SDS011;69097;52.132;5.422;2023-06-14T11:43:24;5.25;;;1.20;;
79616;SDS011;69097;52.132;5.422;2023-06-14T11:45:51;4.65;;;1.40;;
79616;SDS011;69097;52.132;5.422;2023-06-14T11:48:40;5.32;;;1.20;;
79616;SDS011;69097;52.132;5.422;2023-06-14T11:51:08;5.03;;;1.00;;
79616;SDS011;69097;52.132;5.422;2023-06-14T11:56:01;7.80;;;1.00;;
79616;SDS011;69097;52.132;5.422;2023-06-14T12:00:55;4.10;;;1.00;;
79616;SDS011;69097;52.132;5.422;2023-06-14T12:05:50;4.93;;;0.90;;
79616;SDS011;69097;52.132;5.422;2023-06-14T12:08:17;3.10;;;0.90;;
79616;SDS011;69097;52.132;5.422;2023-06-14T12:10:44;3.72;;;1.08;;
79616;SDS011;69097;52.132;5.422;2023-06-14T12:13:11;4.00;;;0.93;;
79616;SDS011;69097;52.132;5.422;2023-06-14T12:15:37;3.40;;;0.93;;
79616;SDS011;69097;52.132;5.422;2023-06-14T12:18:06;4.22;;;1.00;;
79616;SDS011;69097;52.132;5.422;2023-06-14T12:20:34;4.70;;;0.98;;
79616;SDS011;69097;52.132;5.422;2023-06-14T12:23:03;4.53;;;0.73;;
79616;SDS011;69097;52.132;5.422;2023-06-14T12:25:31;4.05;;;1.30;;
79616;SDS011;69097;52.132;5.422;2023-06-14T12:27:59;5.40;;;1.20;;
79616;SDS011;69097;52.132;5.422;2023-06-14T12:30:31;4.13;;;1.38;;
79616;SDS011;69097;52.132;5.422;2023-06-14T12:32:57;6.97;;;1.10;;
79616;SDS011;69097;52.132;5.422;2023-06-14T12:35:24;5.28;;;0.98;;
79616;SDS011;69097;52.132;5.422;2023-06-14T12:37:50;6.40;;;1.40;;
79616;SDS011;69097;52.132;5.422;2023-06-14T12:40:20;4.20;;;1.08;;
79616;SDS011;69097;52.132;5.422;2023-06-14T12:42:47;4.72;;;1.17;;
79616;SDS011;69097;52.132;5.422;2023-06-14T12:45:14;4.90;;;1.10;;
79616;SDS011;69097;52.132;5.422;2023-06-14T12:47:41;4.38;;;1.10;;
79616;SDS011;69097;52.132;5.422;2023-06-14T12:50:08;3.45;;;1.05;;
79616;SDS011;69097;52.132;5.422;2023-06-14T12:52:35;4.55;;;0.90;;
79616;SDS011;69097;52.132;5.422;2023-06-14T12:55:05;4.97;;;0.95;;
79616;SDS011;69097;52.132;5.422;2023-06-14T12:57:32;5.05;;;1.00;;
79616;SDS011;69097;52.132;5.422;2023-06-14T13:02:26;4.10;;;0.82;;
79616;SDS011;69097;52.132;5.422;2023-06-14T13:04:53;4.60;;;0.73;;
79616;SDS011;69097;52.132;5.422;2023-06-14T13:07:20;4.55;;;0.80;;
79616;SDS011;69097;52.132;5.422;2023-06-14T13:09:46;3.75;;;0.98;;
79616;SDS011;69097;52.132;5.422;2023-06-14T13:12:12;4.45;;;0.80;;
79616;SDS011;69097;52.132;5.422;2023-06-14T13:17:10;6.55;;;1.20;;
79616;SDS011;69097;52.132;5.422;2023-06-14T13:19:37;5.47;;;0.90;;
79616;SDS011;69097;52.132;5.422;2023-06-14T13:24:31;3.25;;;0.85;;
79616;SDS011;69097;52.132;5.422;2023-06-14T13:26:58;3.78;;;0.82;;
79616;SDS011;69097;52.132;5.422;2023-06-14T13:29:24;4.75;;;1.10;;
79616;SDS011;69097;52.132;5.422;2023-06-14T13:31:51;5.00;;;0.93;;
79616;SDS011;69097;52.132;5.422;2023-06-14T13:36:44;4.97;;;1.25;;
79616;SDS011;69097;52.132;5.422;2023-06-14T13:41:38;4.32;;;0.90;;
79616;SDS011;69097;52.132;5.422;2023-06-14T13:44:04;4.15;;;0.93;;
79616;SDS011;69097;52.132;5.422;2023-06-14T13:48:58;4.05;;;1.05;;
79616;SDS011;69097;52.132;5.422;2023-06-14T13:51:24;4.38;;;1.02;;
79616;SDS011;69097;52.132;5.422;2023-06-14T13:53:52;3.58;;;1.00;;
79616;SDS011;69097;52.132;5.422;2023-06-14T13:56:21;3.53;;;1.23;;
79616;SDS011;69097;52.132;5.422;2023-06-14T13:58:50;5.25;;;0.82;;
79616;SDS011;69097;52.132;5.422;2023-06-14T14:01:17;6.00;;;0.90;;
79616;SDS011;69097;52.132;5.422;2023-06-14T14:03:46;4.13;;;1.50;;
79616;SDS011;69097;52.132;5.422;2023-06-14T14:06:13;5.78;;;1.20;;
79616;SDS011;69097;52.132;5.422;2023-06-14T14:08:40;4.53;;;1.25;;
79616;SDS011;69097;52.132;5.422;2023-06-14T14:13:33;5.30;;;0.90;;
79616;SDS011;69097;52.132;5.422;2023-06-14T14:16:02;4.68;;;0.90;;
79616;SDS011;69097;52.132;5.422;2023-06-14T14:18:29;3.45;;;0.88;;
79616;SDS011;69097;52.132;5.422;2023-06-14T14:20:57;4.20;;;0.90;;
79616;SDS011;69097;52.132;5.422;2023-06-14T14:23:24;3.90;;;0.82;;
79616;SDS011;69097;52.132;5.422;2023-06-14T14:25:50;4.03;;;0.82;;
79616;SDS011;69097;52.132;5.422;2023-06-14T14:28:17;4.10;;;1.00;;
79616;SDS011;69097;52.132;5.422;2023-06-14T14:30:46;3.42;;;0.70;;
79616;SDS011;69097;52.132;5.422;2023-06-14T14:33:13;4.60;;;1.20;;
79616;SDS011;69097;52.132;5.422;2023-06-14T14:35:43;4.35;;;0.82;;
79616;SDS011;69097;52.132;5.422;2023-06-14T14:38:16;3.78;;;0.60;;
79616;SDS011;69097;52.132;5.422;2023-06-14T14:40:42;4.82;;;0.90;;
79616;SDS011;69097;52.132;5.422;2023-06-14T14:43:10;4.50;;;0.80;;
79616;SDS011;69097;52.132;5.422;2023-06-14T14:45:37;5.35;;;0.80;;
79616;SDS011;69097;52.132;5.422;2023-06-14T14:48:04;3.85;;;0.80;;
79616;SDS011;69097;52.132;5.422;2023-06-14T14:50:30;4.45;;;0.80;;
79616;SDS011;69097;52.132;5.422;2023-06-14T14:52:57;3.97;;;0.80;;
79616;SDS011;69097;52.132;5.422;2023-06-14T14:55:23;4.68;;;0.95;;
79616;SDS011;69097;52.132;5.422;2023-06-14T14:57:50;5.13;;;0.88;;
79616;SDS011;69097;52.132;5.422;2023-06-14T15:00:17;3.85;;;1.00;;
79616;SDS011;69097;52.132;5.422;2023-06-14T15:02:44;4.05;;;0.82;;
79616;SDS011;69097;52.132;5.422;2023-06-14T15:05:11;2.65;;;0.68;;
79616;SDS011;69097;52.132;5.422;2023-06-14T15:07:37;3.97;;;1.00;;
79616;SDS011;69097;52.132;5.422;2023-06-14T15:10:06;3.88;;;1.10;;
79616;SDS011;69097;52.132;5.422;2023-06-14T15:12:33;4.03;;;1.02;;
79616;SDS011;69097;52.132;5.422;2023-06-14T15:15:00;3.78;;;0.82;;
79616;SDS011;69097;52.132;5.422;2023-06-14T15:17:27;4.57;;;0.70;;
79616;SDS011;69097;52.132;5.422;2023-06-14T15:19:54;3.47;;;0.90;;
79616;SDS011;69097;52.132;5.422;2023-06-14T15:22:20;3.80;;;0.80;;
79616;SDS011;69097;52.132;5.422;2023-06-14T15:24:47;3.97;;;0.80;;
79616;SDS011;69097;52.132;5.422;2023-06-14T15:27:16;4.60;;;0.68;;
79616;SDS011;69097;52.132;5.422;2023-06-14T15:32:09;3.25;;;1.00;;
79616;SDS011;69097;52.132;5.422;2023-06-14T15:34:37;4.93;;;1.02;;
79616;SDS011;69097;52.132;5.422;2023-06-14T15:37:06;3.70;;;0.90;;
79616;SDS011;69097;52.132;5.422;2023-06-14T15:39:33;4.68;;;0.80;;
79616;SDS011;69097;52.132;5.422;2023-06-14T15:42:00;9.98;;;1.00;;
79616;SDS011;69097;52.132;5.422;2023-06-14T15:44:27;3.33;;;0.70;;
79616;SDS011;69097;52.132;5.422;2023-06-14T15:49:20;3.33;;;0.90;;
79616;SDS011;69097;52.132;5.422;2023-06-14T15:51:46;4.63;;;0.95;;
79616;SDS011;69097;52.132;5.422;2023-06-14T15:54:13;6.40;;;0.90;;
79616;SDS011;69097;52.132;5.422;2023-06-14T15:59:06;4.30;;;1.30;;
79616;SDS011;69097;52.132;5.422;2023-06-14T16:01:33;4.38;;;1.10;;
79616;SDS011;69097;52.132;5.422;2023-06-14T16:04:00;3.83;;;0.80;;